Time;durP1;ratioP1;P1;durP2;ratioP2;P2;SDS_P1;SDS_P2;PMS_P1;PMS_P2;Temp;Humidity;BMP_temperature;BMP_pressure;BME280_temperature;BME280_humidity;BME280_pressure;Samples;Min_cycle;Max_cycle;Signal;HPM_P1;HPM_P2
2022/09/23 00:01:31;;;;;;;;;;;11.90;84.10;;;;;;5034222;28;19944;-93
2022/09/23 00:03:57;;;;;;;;;;;11.90;84.20;;;;;;5034555;28;19948;-92
2022/09/23 00:06:23;;;;;;;;;;;11.80;85.20;;;;;;5034391;28;19997;-93
2022/09/23 00:08:49;;;;;;;;;;;11.80;85.40;;;;;;5034383;28;19943;-93
2022/09/23 00:11:17;;;;;;;;;;;11.70;85.20;;;;;;5033993;28;19947;-93
2022/09/23 00:13:43;;;;;;;;;;;11.60;85.00;;;;;;5034236;28;20056;-92
2022/09/23 00:16:10;;;;;;;;;;;11.60;84.80;;;;;;5033730;28;19971;-92
2022/09/23 00:18:36;;;;;;;;;;;11.60;85.30;;;;;;5034213;28;19945;-93
2022/09/23 00:21:07;;;;;;;;;;;11.50;85.20;;;;;;5034068;28;20457;-93
2022/09/23 00:23:32;;;;;;;;;;;11.60;85.50;;;;;;5034076;28;19940;-93
2022/09/23 00:25:59;;;;;;;;;;;11.70;84.70;;;;;;5033954;28;19966;-93
2022/09/23 00:28:25;;;;;;;;;;;11.70;84.50;;;;;;5034052;28;20010;-93
2022/09/23 00:30:50;;;;;;;;;;;11.60;84.40;;;;;;5034169;28;19941;-93
2022/09/23 00:33:16;;;;;;;;;;;11.50;84.40;;;;;;5033855;28;20396;-92
2022/09/23 00:35:41;;;;;;;;;;;11.40;84.10;;;;;;5033889;28;19966;-93
2022/09/23 00:38:07;;;;;;;;;;;11.30;83.80;;;;;;5033858;28;19951;-92
2022/09/23 00:40:33;;;;;;;;;;;11.30;84.00;;;;;;5036633;28;19942;-93
2022/09/23 00:42:59;;;;;;;;;;;11.30;85.00;;;;;;5037523;28;20040;-92
2022/09/23 00:45:24;;;;;;;;;;;11.20;84.50;;;;;;5037589;28;19984;-93
2022/09/23 00:47:51;;;;;;;;;;;11.20;84.80;;;;;;5037784;28;19946;-92
2022/09/23 00:50:23;;;;;;;;;;;11.10;85.70;;;;;;5037342;28;19942;-92
2022/09/23 00:52:49;;;;;;;;;;;11.10;86.20;;;;;;5037949;28;19973;-93
2022/09/23 00:55:17;;;;;;;;;;;11.30;86.30;;;;;;5037024;28;19944;-93
2022/09/23 00:57:43;;;;;;;;;;;11.40;86.10;;;;;;5037471;28;19943;-93
2022/09/23 01:00:09;;;;;;;;;;;11.40;85.80;;;;;;5037204;28;19943;-93
2022/09/23 01:02:36;;;;;;;;;;;11.50;85.50;;;;;;5037083;28;19942;-93
2022/09/23 01:05:05;;;;;;;;;;;11.60;85.60;;;;;;5036935;28;19945;-93
2022/09/23 01:07:30;;;;;;;;;;;11.70;85.50;;;;;;5037140;28;19944;-93
2022/09/23 01:09:58;;;;;;;;;;;11.60;85.30;;;;;;5019079;28;19950;-93
2022/09/23 01:12:23;;;;;;;;;;;11.60;85.50;;;;;;5036764;28;19986;-92
2022/09/23 01:14:49;;;;;;;;;;;11.70;85.70;;;;;;5028588;28;19979;-93
2022/09/23 01:17:20;;;;;;;;;;;11.60;85.80;;;;;;5016954;28;19960;-92
2022/09/23 01:20:15;;;;;;;;;;;11.50;85.50;;;;;;5016925;28;19944;-93
2022/09/23 01:22:49;;;;;;;;;;;11.20;85.50;;;;;;4999479;28;20004;-93
2022/09/23 01:25:18;;;;;;;;;;;11.10;86.20;;;;;;5016770;28;19945;-93
2022/09/23 01:27:54;;;;;;;;;;;11.10;86.60;;;;;;5016779;28;19935;-93
2022/09/23 01:30:26;;;;;;;;;;;11.20;86.60;;;;;;4999192;28;20039;-92
2022/09/23 01:32:54;;;;;;;;;;;11.20;86.70;;;;;;5016454;28;19944;-92
2022/09/23 01:35:26;;;;;;;;;;;11.30;86.90;;;;;;5016814;28;19998;-93
2022/09/23 01:37:57;;;;;;;;;;;11.40;87.00;;;;;;5016606;28;19944;-93
2022/09/23 01:40:25;;;;;;;;;;;11.70;87.00;;;;;;5016569;28;19941;-93
2022/09/23 01:43:05;;;;;;;;;;;11.90;86.40;;;;;;5016290;28;19939;-93
2022/09/23 01:45:33;;;;;;;;;;;12.10;85.70;;;;;;5016185;28;19946;-93
2022/09/23 01:48:09;;;;;;;;;;;12.10;85.90;;;;;;5016143;28;19943;-93
2022/09/23 01:53:23;;;;;;;;;;;12.20;86.20;;;;;;5016519;28;19944;-93
2022/09/23 01:55:50;;;;;;;;;;;12.20;85.50;;;;;;5016008;28;19973;-93
2022/09/23 01:58:21;;;;;;;;;;;12.20;85.40;;;;;;5016159;28;19942;-93
2022/09/23 02:00:56;;;;;;;;;;;12.20;85.50;;;;;;5016395;28;20029;-93
2022/09/23 02:03:28;;;;;;;;;;;12.20;86.00;;;;;;4998672;28;19940;-93
2022/09/23 02:06:08;;;;;;;;;;;12.20;85.80;;;;;;5015898;28;19941;-92
2022/09/23 02:08:40;;;;;;;;;;;12.20;85.90;;;;;;5016135;28;19938;-93
2022/09/23 02:11:15;;;;;;;;;;;12.20;86.10;;;;;;5016387;28;19939;-92
2022/09/23 02:13:54;;;;;;;;;;;12.00;86.20;;;;;;5016225;28;19948;-93
2022/09/23 02:16:34;;;;;;;;;;;12.00;86.60;;;;;;5016201;28;19971;-93
2022/09/23 02:19:03;;;;;;;;;;;12.10;87.10;;;;;;5015803;28;19940;-93
2022/09/23 02:21:32;;;;;;;;;;;12.10;87.20;;;;;;5015718;28;19968;-93
2022/09/23 02:24:06;;;;;;;;;;;12.20;87.40;;;;;;5015760;28;20029;-92
2022/09/23 02:26:52;;;;;;;;;;;12.20;87.10;;;;;;5015600;28;19965;-93
2022/09/23 02:29:28;;;;;;;;;;;12.30;87.20;;;;;;5015888;28;19942;-93
2022/09/23 02:31:53;;;;;;;;;;;12.30;87.50;;;;;;5015370;28;20110;-93
2022/09/23 02:34:20;;;;;;;;;;;12.40;87.60;;;;;;5015599;28;20428;-93
2022/09/23 02:36:52;;;;;;;;;;;12.40;87.50;;;;;;5015368;28;20017;-93
2022/09/23 02:39:19;;;;;;;;;;;12.40;87.80;;;;;;5015586;28;19944;-93
2022/09/23 02:41:50;;;;;;;;;;;12.40;87.80;;;;;;5015402;28;19951;-92
2022/09/23 02:44:17;;;;;;;;;;;12.40;87.90;;;;;;5015304;28;19944;-93
2022/09/23 02:46:43;;;;;;;;;;;12.40;87.90;;;;;;5015652;28;19942;-93
2022/09/23 02:49:11;;;;;;;;;;;12.40;88.00;;;;;;5015517;28;19943;-93
2022/09/23 02:51:37;;;;;;;;;;;12.30;88.00;;;;;;5015076;28;19966;-93
2022/09/23 02:54:06;;;;;;;;;;;12.30;88.00;;;;;;5015054;28;20369;-93
2022/09/23 02:56:31;;;;;;;;;;;12.30;88.10;;;;;;5015377;28;19958;-92
2022/09/23 02:58:57;;;;;;;;;;;12.40;87.80;;;;;;5015293;28;19940;-93
2022/09/23 03:01:39;;;;;;;;;;;12.40;87.70;;;;;;5015050;28;20026;-93
2022/09/23 03:04:05;;;;;;;;;;;12.40;87.50;;;;;;5014920;28;19978;-93
2022/09/23 03:06:37;;;;;;;;;;;12.40;87.10;;;;;;5015195;28;19939;-93
2022/09/23 03:09:09;;;;;;;;;;;12.40;86.80;;;;;;5015088;28;19999;-93
2022/09/23 03:11:37;;;;;;;;;;;12.40;86.50;;;;;;5015035;28;19941;-93
2022/09/23 03:14:16;;;;;;;;;;;12.40;86.40;;;;;;5014902;28;19950;-93
2022/09/23 03:16:54;;;;;;;;;;;12.40;86.60;;;;;;5015148;28;20410;-93
2022/09/23 03:19:32;;;;;;;;;;;12.20;86.70;;;;;;5014970;28;19989;-92
2022/09/23 03:22:01;;;;;;;;;;;12.10;86.10;;;;;;5015011;28;19998;-92
2022/09/23 03:24:30;;;;;;;;;;;11.70;86.40;;;;;;5015063;28;20421;-93
2022/09/23 03:26:59;;;;;;;;;;;11.60;86.90;;;;;;5014839;28;20060;-93
2022/09/23 03:29:24;;;;;;;;;;;11.60;87.40;;;;;;5014821;28;19948;-93
2022/09/23 03:31:51;;;;;;;;;;;11.50;87.80;;;;;;5014966;28;19940;-93
2022/09/23 03:34:19;;;;;;;;;;;11.40;88.10;;;;;;5015235;28;19948;-93
2022/09/23 03:36:52;;;;;;;;;;;11.40;88.20;;;;;;5014610;28;19945;-93
2022/09/23 03:39:24;;;;;;;;;;;11.40;88.40;;;;;;5014989;28;19947;-93
2022/09/23 03:41:51;;;;;;;;;;;11.40;88.40;;;;;;5015051;28;20398;-93
2022/09/23 03:44:18;;;;;;;;;;;11.40;88.30;;;;;;5015165;28;19983;-92
2022/09/23 03:46:48;;;;;;;;;;;11.30;88.30;;;;;;5015021;28;19954;-93
2022/09/23 03:49:23;;;;;;;;;;;11.20;88.60;;;;;;5014688;28;19946;-93
2022/09/23 03:51:48;;;;;;;;;;;11.20;88.80;;;;;;5014660;28;19957;-93
2022/09/23 03:54:14;;;;;;;;;;;11.30;89.10;;;;;;5014712;28;20299;-93
2022/09/23 03:56:40;;;;;;;;;;;11.30;88.80;;;;;;5015174;28;19968;-92
2022/09/23 03:59:06;;;;;;;;;;;11.30;88.40;;;;;;5014574;28;19996;-92
2022/09/23 04:01:31;;;;;;;;;;;11.30;88.40;;;;;;5014707;28;19940;-92
2022/09/23 04:03:57;;;;;;;;;;;11.20;88.70;;;;;;5014624;28;19943;-93
2022/09/23 04:06:22;;;;;;;;;;;11.30;89.20;;;;;;5014552;28;19947;-92
2022/09/23 04:08:48;;;;;;;;;;;11.30;89.20;;;;;;5014454;28;19954;-92
2022/09/23 04:11:13;;;;;;;;;;;11.40;89.30;;;;;;5014346;28;19946;-93
2022/09/23 04:13:39;;;;;;;;;;;11.40;89.00;;;;;;5014247;28;19945;-93
2022/09/23 04:16:05;;;;;;;;;;;11.40;88.60;;;;;;5017560;28;19979;-93
2022/09/23 04:18:30;;;;;;;;;;;11.40;88.40;;;;;;5000171;28;20057;-93
2022/09/23 04:20:57;;;;;;;;;;;11.40;88.50;;;;;;5017762;28;19938;-92
2022/09/23 04:23:23;;;;;;;;;;;11.40;88.60;;;;;;5018171;28;20025;-93
2022/09/23 04:25:49;;;;;;;;;;;11.40;88.50;;;;;;5017925;28;20003;-93
2022/09/23 04:28:15;;;;;;;;;;;11.40;88.30;;;;;;5017775;28;19938;-93
2022/09/23 04:30:42;;;;;;;;;;;11.30;87.90;;;;;;5017747;28;20532;-93
2022/09/23 04:33:08;;;;;;;;;;;11.20;88.10;;;;;;5017771;28;19989;-93
2022/09/23 04:35:34;;;;;;;;;;;11.20;88.40;;;;;;5017561;28;19959;-93
2022/09/23 04:37:59;;;;;;;;;;;11.30;88.30;;;;;;5018067;28;19947;-93
2022/09/23 04:40:25;;;;;;;;;;;11.30;88.20;;;;;;5018191;28;20413;-93
2022/09/23 04:42:50;;;;;;;;;;;11.20;88.20;;;;;;5017410;28;19992;-92
2022/09/23 04:45:16;;;;;;;;;;;11.10;88.10;;;;;;5017895;28;19950;-93
2022/09/23 04:47:41;;;;;;;;;;;11.10;88.00;;;;;;5017798;28;19941;-93
2022/09/23 04:50:07;;;;;;;;;;;11.00;87.80;;;;;;5017931;28;20020;-93
2022/09/23 04:52:33;;;;;;;;;;;10.90;87.60;;;;;;5000282;28;20061;-93
2022/09/23 04:54:58;;;;;;;;;;;10.90;87.50;;;;;;5017698;28;19949;-93
2022/09/23 04:57:24;;;;;;;;;;;10.80;87.50;;;;;;5017251;28;19970;-93
2022/09/23 04:59:49;;;;;;;;;;;10.80;87.80;;;;;;5017289;28;19940;-93
2022/09/23 05:02:15;;;;;;;;;;;10.90;88.10;;;;;;5017119;28;19977;-92
2022/09/23 05:04:41;;;;;;;;;;;10.90;87.60;;;;;;5016831;28;20361;-92
2022/09/23 05:07:06;;;;;;;;;;;10.90;87.70;;;;;;5016790;28;19940;-92
2022/09/23 05:09:32;;;;;;;;;;;10.90;87.70;;;;;;5017080;28;20003;-93
2022/09/23 05:11:58;;;;;;;;;;;10.90;87.70;;;;;;4999587;28;19956;-93
2022/09/23 05:14:23;;;;;;;;;;;10.80;87.90;;;;;;5016780;28;19974;-93
2022/09/23 05:16:49;;;;;;;;;;;10.80;88.20;;;;;;5016428;28;19962;-93
2022/09/23 05:19:15;;;;;;;;;;;10.80;88.60;;;;;;5016642;28;19943;-93
2022/09/23 05:21:40;;;;;;;;;;;10.80;88.60;;;;;;4999064;28;19957;-93
2022/09/23 05:24:06;;;;;;;;;;;10.80;88.70;;;;;;5016558;28;19938;-93
2022/09/23 05:26:32;;;;;;;;;;;10.80;88.90;;;;;;5016166;28;19939;-93
2022/09/23 05:28:58;;;;;;;;;;;10.90;89.30;;;;;;5016406;28;19940;-93
2022/09/23 05:31:24;;;;;;;;;;;10.90;89.20;;;;;;5016278;28;20093;-93
2022/09/23 05:33:51;;;;;;;;;;;10.90;89.00;;;;;;5015588;28;19998;-93
2022/09/23 05:36:17;;;;;;;;;;;10.90;89.40;;;;;;5000953;28;20023;-93
2022/09/23 05:38:43;;;;;;;;;;;10.90;89.50;;;;;;4996437;28;20036;-93
2022/09/23 05:41:10;;;;;;;;;;;10.90;89.60;;;;;;4998458;28;19952;-93
2022/09/23 05:43:36;;;;;;;;;;;10.90;89.80;;;;;;5015954;28;19942;-93
2022/09/23 05:46:06;;;;;;;;;;;11.00;89.80;;;;;;5016088;28;20367;-92
2022/09/23 05:48:33;;;;;;;;;;;11.10;90.00;;;;;;5015521;28;19947;-93
2022/09/23 05:50:59;;;;;;;;;;;11.20;89.90;;;;;;5016039;28;19961;-93
2022/09/23 05:53:25;;;;;;;;;;;11.40;89.60;;;;;;4998921;28;19992;-92
2022/09/23 05:55:50;;;;;;;;;;;11.60;89.10;;;;;;5016677;28;19987;-93
2022/09/23 05:58:16;;;;;;;;;;;11.70;88.90;;;;;;5016390;28;20385;-93
2022/09/23 06:00:42;;;;;;;;;;;11.80;88.60;;;;;;5017064;28;20014;-92
2022/09/23 06:03:14;;;;;;;;;;;11.90;88.20;;;;;;5016188;28;20042;-93
2022/09/23 06:05:40;;;;;;;;;;;11.90;87.90;;;;;;4998491;28;20309;-93
2022/09/23 06:08:06;;;;;;;;;;;12.10;87.70;;;;;;5028063;28;19947;-93
2022/09/23 06:10:39;;;;;;;;;;;12.10;87.80;;;;;;5035574;28;19999;-93
2022/09/23 06:13:05;;;;;;;;;;;12.20;87.90;;;;;;5018514;28;19987;-93
2022/09/23 06:15:31;;;;;;;;;;;12.20;87.80;;;;;;5015619;28;19977;-92
2022/09/23 06:17:57;;;;;;;;;;;12.20;88.00;;;;;;5010321;28;19969;-92
2022/09/23 06:20:23;;;;;;;;;;;12.30;88.20;;;;;;5015285;28;19946;-93
2022/09/23 06:22:48;;;;;;;;;;;12.40;88.20;;;;;;5015957;28;19948;-92
2022/09/23 06:25:14;;;;;;;;;;;12.60;88.10;;;;;;5016283;28;19944;-93
2022/09/23 06:27:40;;;;;;;;;;;12.60;87.90;;;;;;5015616;28;19940;-92
2022/09/23 06:30:06;;;;;;;;;;;12.80;87.40;;;;;;5014604;28;19946;-93
2022/09/23 06:32:31;;;;;;;;;;;12.90;87.40;;;;;;5018321;28;19954;-92
2022/09/23 06:34:57;;;;;;;;;;;12.90;87.70;;;;;;5015448;28;19948;-93
2022/09/23 06:37:23;;;;;;;;;;;12.90;87.80;;;;;;5012766;28;20020;-93
2022/09/23 06:39:48;;;;;;;;;;;12.90;87.90;;;;;;5014719;28;20402;-92
2022/09/23 06:42:15;;;;;;;;;;;12.90;87.50;;;;;;5014773;28;19940;-94
2022/09/23 06:44:41;;;;;;;;;;;13.10;86.60;;;;;;5014267;28;19940;-92
2022/09/23 06:47:06;;;;;;;;;;;13.30;86.90;;;;;;5018068;28;20309;-92
2022/09/23 06:49:32;;;;;;;;;;;13.30;86.90;;;;;;5010015;28;19951;-92
2022/09/23 06:51:58;;;;;;;;;;;13.40;86.70;;;;;;5010854;28;19984;-92
2022/09/23 06:54:27;;;;;;;;;;;13.50;86.50;;;;;;4996318;28;20406;-92
2022/09/23 06:56:53;;;;;;;;;;;13.60;85.90;;;;;;5010703;28;19976;-92
2022/09/23 06:59:18;;;;;;;;;;;13.70;84.70;;;;;;5014735;28;19941;-92
2022/09/23 07:01:46;;;;;;;;;;;13.70;83.90;;;;;;5014630;28;19948;-92
2022/09/23 07:04:11;;;;;;;;;;;13.90;84.10;;;;;;5014220;28;19994;-93
2022/09/23 07:06:37;;;;;;;;;;;14.00;83.80;;;;;;5013245;28;19947;-92
2022/09/23 07:09:04;;;;;;;;;;;14.20;83.60;;;;;;5013231;28;20037;-92
2022/09/23 07:11:29;;;;;;;;;;;14.40;82.80;;;;;;5013333;28;20034;-92
2022/09/23 07:13:55;;;;;;;;;;;14.50;80.50;;;;;;5022911;23;19976;-92
2022/09/23 07:16:20;;;;;;;;;;;14.60;79.00;;;;;;5072941;28;20029;-92
2022/09/23 07:18:58;;;;;;;;;;;14.80;79.10;;;;;;5073762;28;19954;-92
2022/09/23 07:21:24;;;;;;;;;;;14.90;79.20;;;;;;5056816;28;19977;-92
2022/09/23 07:23:50;;;;;;;;;;;15.00;79.30;;;;;;5070442;28;19970;-92
2022/09/23 07:26:17;;;;;;;;;;;15.20;78.60;;;;;;5072678;28;19949;-92
2022/09/23 07:28:43;;;;;;;;;;;15.30;78.00;;;;;;5072319;28;20038;-93
2022/09/23 07:31:10;;;;;;;;;;;15.40;77.70;;;;;;5064825;28;20410;-93
2022/09/23 07:33:37;;;;;;;;;;;15.50;77.70;;;;;;5072310;28;19997;-92
2022/09/23 07:36:04;;;;;;;;;;;15.70;77.10;;;;;;5073336;28;19956;-94
2022/09/23 07:38:30;;;;;;;;;;;15.80;75.80;;;;;;5073150;28;20499;-93
2022/09/23 07:41:06;;;;;;;;;;;15.80;75.30;;;;;;5072433;28;19945;-93
2022/09/23 07:43:31;;;;;;;;;;;15.80;75.00;;;;;;5055431;28;19955;-92
2022/09/23 07:45:58;;;;;;;;;;;15.70;75.20;;;;;;5073823;28;20316;-92
2022/09/23 07:48:23;;;;;;;;;;;15.60;75.20;;;;;;5074867;28;19951;-94
2022/09/23 07:50:49;;;;;;;;;;;15.50;75.00;;;;;;5072192;28;19953;-93
2022/09/23 07:53:15;;;;;;;;;;;15.60;74.60;;;;;;5057243;28;19989;-93
2022/09/23 07:55:40;;;;;;;;;;;15.60;73.40;;;;;;5057620;28;20385;-92
2022/09/23 07:58:06;;;;;;;;;;;15.70;71.90;;;;;;5056393;28;20030;-93
2022/09/23 08:00:32;;;;;;;;;;;15.70;71.20;;;;;;5055270;28;20042;-93
2022/09/23 08:02:58;;;;;;;;;;;15.70;69.40;;;;;;5056557;28;19984;-92
2022/09/23 08:05:24;;;;;;;;;;;15.80;68.50;;;;;;5056683;28;19987;-92
2022/09/23 08:07:50;;;;;;;;;;;15.80;65.20;;;;;;5051386;28;20189;-92
2022/09/23 08:10:19;;;;;;;;;;;15.90;66.30;;;;;;5055907;28;20598;-93
2022/09/23 08:12:45;;;;;;;;;;;16.00;67.00;;;;;;5055951;28;20411;-92
2022/09/23 08:15:11;;;;;;;;;;;16.00;67.00;;;;;;5055431;28;20054;-93
2022/09/23 08:17:36;;;;;;;;;;;16.00;67.10;;;;;;5038358;28;20057;-93
2022/09/23 08:20:02;;;;;;;;;;;16.10;66.80;;;;;;5037226;28;20358;-93
2022/09/23 08:22:28;;;;;;;;;;;16.10;65.10;;;;;;5056067;28;20398;-93
2022/09/23 08:24:54;;;;;;;;;;;16.10;64.90;;;;;;5056044;28;20390;-93
2022/09/23 08:27:20;;;;;;;;;;;16.30;64.00;;;;;;5050251;28;19946;-93
2022/09/23 08:29:46;;;;;;;;;;;16.30;63.70;;;;;;5045838;28;19967;-93
2022/09/23 08:32:12;;;;;;;;;;;16.40;63.10;;;;;;5038878;28;19944;-93
2022/09/23 08:34:37;;;;;;;;;;;16.40;63.00;;;;;;5055715;28;20405;-93
2022/09/23 08:37:03;;;;;;;;;;;16.50;63.10;;;;;;5054564;28;20048;-93
2022/09/23 08:39:29;;;;;;;;;;;16.50;64.20;;;;;;5052363;28;19942;-93
2022/09/23 08:42:03;;;;;;;;;;;16.50;64.10;;;;;;5037841;28;19998;-93
2022/09/23 08:44:29;;;;;;;;;;;16.50;65.20;;;;;;5055527;28;19942;-93
2022/09/23 08:47:15;;;;;;;;;;;16.50;62.60;;;;;;5052421;28;19949;-93
2022/09/23 08:49:46;;;;;;;;;;;16.60;65.00;;;;;;5052238;28;19952;-93
2022/09/23 08:52:31;;;;;;;;;;;16.60;63.60;;;;;;5056777;28;19961;-93
2022/09/23 08:54:57;;;;;;;;;;;16.70;65.40;;;;;;5056769;28;19937;-93
2022/09/23 08:57:36;;;;;;;;;;;16.80;64.00;;;;;;5055622;28;20278;-94
2022/09/23 09:00:03;;;;;;;;;;;16.80;64.00;;;;;;5018684;28;19944;-93
2022/09/23 09:02:29;;;;;;;;;;;16.90;63.40;;;;;;5036377;28;20041;-93
2022/09/23 09:04:59;;;;;;;;;;;17.00;63.00;;;;;;5036388;28;19959;-94
2022/09/23 09:07:28;;;;;;;;;;;17.00;64.00;;;;;;5036404;28;19965;-94
2022/09/23 09:10:02;;;;;;;;;;;17.20;63.00;;;;;;5051321;28;19943;-93
2022/09/23 09:12:45;;;;;;;;;;;17.20;62.10;;;;;;5055990;28;19946;-93
2022/09/23 09:15:12;;;;;;;;;;;17.30;60.70;;;;;;5056051;28;19979;-93
2022/09/23 09:17:45;;;;;;;;;;;17.30;59.20;;;;;;5055657;28;20000;-93
2022/09/23 09:20:16;;;;;;;;;;;17.30;59.80;;;;;;5036517;28;19941;-93
2022/09/23 09:22:47;;;;;;;;;;;17.30;59.90;;;;;;5036779;28;19947;-93
2022/09/23 09:25:22;;;;;;;;;;;17.50;59.50;;;;;;5037122;28;20297;-93
2022/09/23 09:27:48;;;;;;;;;;;17.60;61.20;;;;;;5056491;28;19945;-93
2022/09/23 09:30:15;;;;;;;;;;;17.80;59.80;;;;;;5056204;28;19997;-93
2022/09/23 09:32:45;;;;;;;;;;;17.80;57.30;;;;;;5055916;28;19942;-93
2022/09/23 09:35:32;;;;;;;;;;;17.90;56.40;;;;;;5056065;28;20013;-93
2022/09/23 09:37:57;;;;;;;;;;;17.90;55.50;;;;;;5055831;28;20434;-93
2022/09/23 09:40:24;;;;;;;;;;;17.90;56.10;;;;;;5055911;28;19944;-94
2022/09/23 09:42:49;;;;;;;;;;;18.10;56.40;;;;;;5055706;28;19942;-93
2022/09/23 09:45:23;;;;;;;;;;;18.10;55.30;;;;;;5055843;28;19998;-93
2022/09/23 09:48:08;;;;;;;;;;;18.20;56.00;;;;;;5055693;28;19941;-93
2022/09/23 09:50:42;;;;;;;;;;;18.20;53.50;;;;;;5055593;28;19946;-93
2022/09/23 09:53:16;;;;;;;;;;;18.30;56.90;;;;;;5055470;28;19944;-93
2022/09/23 09:55:41;;;;;;;;;;;18.50;55.00;;;;;;5055453;28;19942;-94
2022/09/23 09:58:12;;;;;;;;;;;18.60;54.60;;;;;;5055702;28;19953;-93
2022/09/23 10:00:42;;;;;;;;;;;18.70;54.10;;;;;;5036263;28;20024;-94
2022/09/23 10:03:13;;;;;;;;;;;18.80;52.30;;;;;;5035167;28;20030;-93
2022/09/23 10:05:45;;;;;;;;;;;18.80;54.00;;;;;;5017554;28;20324;-93
2022/09/23 10:08:14;;;;;;;;;;;18.90;53.40;;;;;;5035205;28;19978;-93
2022/09/23 10:10:50;;;;;;;;;;;19.00;51.70;;;;;;5035209;28;19939;-93
2022/09/23 10:13:18;;;;;;;;;;;19.10;52.60;;;;;;5035005;28;19980;-93
2022/09/23 10:15:44;;;;;;;;;;;19.20;50.70;;;;;;5034667;28;19979;-93
2022/09/23 10:18:18;;;;;;;;;;;19.20;51.10;;;;;;5034784;28;19943;-93
2022/09/23 10:20:45;;;;;;;;;;;19.20;50.50;;;;;;5034760;28;20402;-93
2022/09/23 10:23:16;;;;;;;;;;;19.30;47.90;;;;;;5034646;28;19947;-93
2022/09/23 10:25:42;;;;;;;;;;;19.30;50.40;;;;;;5035017;28;19940;-93
2022/09/23 10:28:28;;;;;;;;;;;19.40;49.90;;;;;;5035346;28;19981;-93
2022/09/23 10:31:14;;;;;;;;;;;19.40;47.60;;;;;;5017256;28;19945;-93
2022/09/23 10:33:48;;;;;;;;;;;19.50;48.10;;;;;;5034593;28;19961;-93
2022/09/23 10:36:17;;;;;;;;;;;19.40;48.30;;;;;;5035427;28;19944;-93
2022/09/23 10:38:43;;;;;;;;;;;19.50;47.90;;;;;;5035386;28;19942;-93
2022/09/23 10:47:30;;;;;;;;;;;19.70;47.60;;;;;;4993988;28;19949;-93
2022/09/23 10:50:02;;;;;;;;;;;19.80;49.10;;;;;;5027153;28;19940;-93
2022/09/23 10:52:31;;;;;;;;;;;20.00;49.70;;;;;;5035045;28;19961;-94
2022/09/23 10:54:59;;;;;;;;;;;20.20;50.00;;;;;;5035180;28;19952;-93
2022/09/23 10:57:41;;;;;;;;;;;20.20;48.60;;;;;;5034763;28;20003;-93
2022/09/23 11:00:15;;;;;;;;;;;20.30;48.40;;;;;;5042385;28;19938;-92
2022/09/23 11:02:40;;;;;;;;;;;20.10;47.60;;;;;;5054466;28;20026;-93
2022/09/23 11:05:10;;;;;;;;;;;20.10;45.50;;;;;;5054515;28;20376;-93
2022/09/23 11:07:38;;;;;;;;;;;20.20;45.40;;;;;;5041798;28;19940;-93
2022/09/23 11:10:20;;;;;;;;;;;20.30;47.70;;;;;;5034716;28;19943;-93
2022/09/23 11:12:55;;;;;;;;;;;20.30;46.00;;;;;;5034285;28;20298;-93
2022/09/23 11:15:43;;;;;;;;;;;20.50;45.00;;;;;;5022058;28;19975;-93
2022/09/23 11:18:09;;;;;;;;;;;20.60;45.20;;;;;;5014789;28;19952;-94
2022/09/23 11:20:53;;;;;;;;;;;20.70;44.30;;;;;;5014971;28;20302;-93
2022/09/23 11:23:34;;;;;;;;;;;20.80;45.00;;;;;;5013961;28;20450;-93
2022/09/23 11:26:26;;;;;;;;;;;21.10;44.10;;;;;;5014558;28;19950;-93
2022/09/23 11:29:10;;;;;;;;;;;21.20;44.90;;;;;;5014395;28;20036;-93
2022/09/23 11:31:51;;;;;;;;;;;21.30;43.20;;;;;;5014630;28;20007;-93
2022/09/23 11:34:24;;;;;;;;;;;21.30;43.10;;;;;;5014237;28;19941;-93
2022/09/23 11:36:56;;;;;;;;;;;21.70;42.50;;;;;;5014482;28;19971;-93
2022/09/23 11:39:36;;;;;;;;;;;22.00;41.90;;;;;;5021603;28;19986;-93
2022/09/23 11:42:05;;;;;;;;;;;22.40;42.10;;;;;;5034266;28;19949;-94
2022/09/23 11:44:34;;;;;;;;;;;22.80;40.40;;;;;;5034325;28;20419;-93
2022/09/23 11:47:00;;;;;;;;;;;22.80;39.80;;;;;;5034865;28;20447;-93
2022/09/23 11:49:31;;;;;;;;;;;22.80;39.30;;;;;;5035114;28;20394;-93
2022/09/23 11:51:57;;;;;;;;;;;22.90;41.00;;;;;;5025708;28;20473;-93
2022/09/23 11:54:27;;;;;;;;;;;22.30;42.50;;;;;;5014460;28;19945;-92
2022/09/23 11:56:53;;;;;;;;;;;22.10;39.60;;;;;;5026504;28;19962;-93
2022/09/23 11:59:23;;;;;;;;;;;21.80;41.10;;;;;;5024829;28;19944;-93
2022/09/23 12:01:51;;;;;;;;;;;21.90;39.20;;;;;;5033409;28;19939;-93
2022/09/23 12:04:29;;;;;;;;;;;22.30;40.30;;;;;;5014497;28;20601;-93
2022/09/23 12:07:00;;;;;;;;;;;23.00;40.60;;;;;;5026502;28;19935;-93
2022/09/23 12:09:35;;;;;;;;;;;23.40;36.90;;;;;;5031388;28;19937;-92
2022/09/23 12:12:11;;;;;;;;;;;22.80;37.70;;;;;;5032884;28;19977;-93
2022/09/23 12:14:49;;;;;;;;;;;23.20;38.00;;;;;;5032982;28;19979;-93
2022/09/23 12:17:14;;;;;;;;;;;23.70;38.10;;;;;;5032812;28;19962;-93
2022/09/23 12:19:58;;;;;;;;;;;23.50;36.10;;;;;;5015585;28;20402;-93
2022/09/23 12:22:34;;;;;;;;;;;23.80;36.40;;;;;;5033229;28;19951;-93
2022/09/23 12:25:19;;;;;;;;;;;23.90;35.70;;;;;;5033614;28;19963;-93
2022/09/23 12:27:46;;;;;;;;;;;24.60;34.20;;;;;;5033241;28;20442;-93
2022/09/23 12:30:14;;;;;;;;;;;24.80;33.50;;;;;;5033160;28;19939;-93
2022/09/23 12:32:41;;;;;;;;;;;25.10;33.80;;;;;;5028827;28;19940;-93
2022/09/23 12:35:20;;;;;;;;;;;25.60;32.90;;;;;;5015118;28;19936;-94
2022/09/23 12:37:46;;;;;;;;;;;25.60;33.60;;;;;;5017257;28;20014;-93
2022/09/23 12:40:33;;;;;;;;;;;26.10;31.70;;;;;;5018722;28;19943;-93
2022/09/23 12:43:00;;;;;;;;;;;26.00;34.60;;;;;;5018855;28;19938;-93
2022/09/23 12:45:26;;;;;;;;;;;25.70;33.00;;;;;;5018538;28;19939;-93
2022/09/23 12:47:52;;;;;;;;;;;25.80;31.20;;;;;;5018394;28;19980;-94
2022/09/23 12:50:36;;;;;;;;;;;26.00;32.30;;;;;;5018287;28;19943;-94
2022/09/23 12:53:22;;;;;;;;;;;26.20;32.10;;;;;;5018397;28;19944;-94
2022/09/23 12:55:50;;;;;;;;;;;26.00;30.50;;;;;;5018299;28;19955;-94
2022/09/23 12:58:34;;;;;;;;;;;26.00;32.00;;;;;;5018824;28;20112;-94
2022/09/23 13:01:06;;;;;;;;;;;26.00;30.90;;;;;;5018187;28;20417;-94
2022/09/23 13:06:37;;;;;;;;;;;27.10;29.50;;;;;;4995368;28;19960;-95
2022/09/23 13:09:05;;;;;;;;;;;26.50;29.70;;;;;;5018579;28;19938;-94
2022/09/23 13:11:31;;;;;;;;;;;26.30;31.60;;;;;;5018808;28;19941;-93
2022/09/23 13:13:59;;;;;;;;;;;26.30;29.70;;;;;;5018909;28;20090;-94
2022/09/23 13:16:28;;;;;;;;;;;26.50;30.40;;;;;;5037139;28;19965;-94
2022/09/23 13:18:54;;;;;;;;;;;27.20;30.00;;;;;;5037325;28;19989;-94
2022/09/23 13:21:38;;;;;;;;;;;28.20;28.20;;;;;;5037333;28;19985;-94
2022/09/23 13:24:15;;;;;;;;;;;28.80;27.40;;;;;;5053420;28;19983;-94
2022/09/23 13:26:51;;;;;;;;;;;29.20;27.40;;;;;;5056481;28;19944;-94
2022/09/23 13:29:26;;;;;;;;;;;27.30;28.70;;;;;;5057076;28;19950;-94
2022/09/23 13:31:52;;;;;;;;;;;26.00;29.70;;;;;;5057899;28;19946;-93
2022/09/23 13:34:20;;;;;;;;;;;25.90;31.10;;;;;;5057010;28;19948;-93
2022/09/23 13:36:46;;;;;;;;;;;25.70;30.30;;;;;;5057370;28;19973;-94
2022/09/23 13:39:16;;;;;;;;;;;25.80;30.00;;;;;;5056985;28;20420;-94
2022/09/23 13:41:43;;;;;;;;;;;27.00;29.80;;;;;;5056952;28;20019;-94
2022/09/23 13:44:14;;;;;;;;;;;27.90;29.70;;;;;;5056281;28;19938;-94
2022/09/23 13:46:44;;;;;;;;;;;28.90;28.10;;;;;;5056030;28;20183;-94
2022/09/23 13:49:29;;;;;;;;;;;28.70;27.60;;;;;;5056249;28;19947;-94
2022/09/23 13:51:56;;;;;;;;;;;28.10;28.10;;;;;;5038905;28;20011;-94
2022/09/23 13:54:31;;;;;;;;;;;28.50;28.00;;;;;;5056448;28;19981;-94
2022/09/23 13:56:57;;;;;;;;;;;28.50;27.80;;;;;;5057523;28;19961;-94
2022/09/23 13:59:30;;;;;;;;;;;28.10;28.60;;;;;;5057244;28;20042;-94
2022/09/23 14:02:12;;;;;;;;;;;27.90;28.60;;;;;;5057201;28;20033;-94
2022/09/23 14:04:38;;;;;;;;;;;28.50;27.10;;;;;;5057255;28;19967;-94
2022/09/23 14:07:05;;;;;;;;;;;29.60;26.20;;;;;;5056663;28;20302;-94
2022/09/23 14:09:33;;;;;;;;;;;29.90;25.60;;;;;;5057005;28;19982;-94
2022/09/23 14:11:59;;;;;;;;;;;29.20;25.60;;;;;;5056937;28;19935;-93
2022/09/23 14:14:26;;;;;;;;;;;27.60;27.40;;;;;;5056440;28;19983;-94
2022/09/23 14:16:52;;;;;;;;;;;28.40;26.60;;;;;;5055978;28;19960;-94
2022/09/23 14:19:22;;;;;;;;;;;28.70;26.70;;;;;;5056735;28;19997;-94
2022/09/23 14:21:54;;;;;;;;;;;28.20;26.90;;;;;;5056580;28;19956;-94
2022/09/23 14:24:21;;;;;;;;;;;27.20;27.60;;;;;;5057615;28;20403;-94
2022/09/23 14:27:10;;;;;;;;;;;26.70;28.30;;;;;;5057531;28;19940;-94
2022/09/23 14:29:35;;;;;;;;;;;26.60;28.00;;;;;;5048667;28;19935;-93
2022/09/23 14:32:03;;;;;;;;;;;26.90;28.60;;;;;;5055998;28;19960;-94
2022/09/23 14:34:37;;;;;;;;;;;27.30;28.40;;;;;;5055479;28;20294;-94
2022/09/23 14:39:53;;;;;;;;;;;27.70;26.70;;;;;;5051671;28;19987;-94
2022/09/23 14:42:19;;;;;;;;;;;27.10;26.90;;;;;;5056121;28;19935;-94
2022/09/23 14:44:47;;;;;;;;;;;26.80;27.30;;;;;;5055521;28;19986;-94